Time;durP1;ratioP1;P1;durP2;ratioP2;P2;SDS_P1;SDS_P2;PMS_P1;PMS_P2;Temp;Humidity;BMP_temperature;BMP_pressure;BME280_temperature;BME280_humidity;BME280_pressure;Samples;Min_cycle;Max_cycle;Signal;HPM_P1;HPM_P2
2022/11/24 00:01:53;;;;;;;21.97;12.73;;;;;;;9.12;100.00;99345.83;123700;1102;104317;-80
2022/11/24 00:04:24;;;;;;;22.30;12.15;;;;;;;9.06;100.00;99349.17;123699;1102;104351;-79
2022/11/24 00:06:55;;;;;;;21.80;11.83;;;;;;;8.99;100.00;99350.77;123387;1102;104399;-81
2022/11/24 00:09:27;;;;;;;22.00;12.43;;;;;;;8.97;100.00;99349.83;123618;1102;104287;-80
2022/11/24 00:12:00;;;;;;;20.53;12.17;;;;;;;8.95;100.00;99350.66;123656;1102;104392;-80
2022/11/24 00:14:31;;;;;;;23.03;12.67;;;;;;;8.92;100.00;99359.31;123711;1102;104242;-80
2022/11/24 00:17:02;;;;;;;22.55;12.10;;;;;;;8.92;100.00;99358.44;123599;1102;104348;-80
2022/11/24 00:19:33;;;;;;;23.00;13.33;;;;;;;8.89;100.00;99359.23;123672;1102;104226;-81
2022/11/24 00:22:05;;;;;;;21.30;12.23;;;;;;;8.86;100.00;99368.75;123705;1102;104360;-80
2022/11/24 00:24:36;;;;;;;21.90;12.60;;;;;;;8.79;100.00;99357.27;123727;1102;104303;-80
2022/11/24 00:27:07;;;;;;;22.37;12.70;;;;;;;8.73;100.00;99365.83;123748;1101;104277;-80
2022/11/24 00:29:38;;;;;;;22.90;12.13;;;;;;;8.70;100.00;99367.50;123810;1102;102060;-80
2022/11/24 00:32:10;;;;;;;20.83;11.33;;;;;;;8.66;100.00;99363.89;123747;1102;104294;-81
2022/11/24 00:34:41;;;;;;;20.43;11.53;;;;;;;8.60;100.00;99368.97;123737;1102;104315;-79
2022/11/24 00:37:12;;;;;;;19.43;10.47;;;;;;;8.55;100.00;99366.23;123701;1102;104281;-80
2022/11/24 00:39:43;;;;;;;19.60;10.67;;;;;;;8.54;100.00;99361.88;123696;1102;104253;-79
2022/11/24 00:42:14;;;;;;;18.60;10.40;;;;;;;8.51;100.00;99369.64;123888;1102;104206;-80
2022/11/24 00:44:45;;;;;;;19.83;10.33;;;;;;;8.48;100.00;99366.03;123830;1102;104229;-80
2022/11/24 00:47:17;;;;;;;18.03;9.77;;;;;;;8.45;100.00;99377.32;123701;1102;104386;-80
2022/11/24 00:49:48;;;;;;;16.57;9.30;;;;;;;8.42;100.00;99374.59;123745;1102;104695;-79
2022/11/24 00:52:19;;;;;;;17.13;9.30;;;;;;;8.35;100.00;99377.88;123782;1102;104210;-80
2022/11/24 00:54:50;;;;;;;16.63;8.73;;;;;;;8.34;100.00;99381.36;123784;1102;104306;-80
2022/11/24 00:57:21;;;;;;;17.43;9.10;;;;;;;8.33;100.00;99383.06;123737;1102;104292;-80
2022/11/24 00:59:52;;;;;;;20.10;9.73;;;;;;;8.32;100.00;99386.55;123875;1102;104380;-80
2022/11/24 01:02:23;;;;;;;18.30;9.00;;;;;;;8.31;100.00;99384.77;123888;1102;104329;-80
2022/11/24 01:04:54;;;;;;;16.13;8.97;;;;;;;8.30;100.00;99387.34;123847;1102;104236;-80
2022/11/24 01:07:25;;;;;;;16.00;8.73;;;;;;;8.24;100.00;99378.49;123913;1102;104226;-79
2022/11/24 01:09:57;;;;;;;16.73;8.83;;;;;;;8.21;100.00;99390.57;124380;1099;104248;-80
2022/11/24 01:12:28;;;;;;;17.17;8.93;;;;;;;8.19;100.00;99394.88;124265;1099;104361;-79
2022/11/24 01:14:59;;;;;;;16.20;8.50;;;;;;;8.15;100.00;99401.76;124292;1099;104367;-81
2022/11/24 01:17:30;;;;;;;16.07;8.87;;;;;;;8.10;100.00;99400.72;124105;1099;104443;-79
2022/11/24 01:20:03;;;;;;;15.00;8.70;;;;;;;8.05;100.00;99399.72;124294;1099;104209;-80
2022/11/24 01:22:34;;;;;;;16.20;8.83;;;;;;;8.02;100.00;99392.67;123738;1099;104421;-81
2022/11/24 01:25:06;;;;;;;14.03;7.97;;;;;;;8.00;100.00;99398.72;124078;1099;104184;-80
2022/11/24 01:27:38;;;;;;;14.10;8.17;;;;;;;7.98;100.00;99401.28;124105;1099;104326;-79
2022/11/24 01:30:11;;;;;;;16.10;8.43;;;;;;;7.97;100.00;99407.34;124096;1099;104238;-80
2022/11/24 01:32:42;;;;;;;17.05;8.78;;;;;;;7.93;100.00;99405.47;124181;1099;104249;-80
2022/11/24 01:35:13;;;;;;;15.53;8.47;;;;;;;7.88;100.00;99405.37;124115;1099;104274;-80
2022/11/24 01:37:44;;;;;;;15.00;7.80;;;;;;;7.87;100.00;99402.71;124111;1098;104281;-80
2022/11/24 01:40:16;;;;;;;16.73;8.43;;;;;;;7.88;100.00;99404.46;124028;1099;104281;-80
2022/11/24 01:42:51;;;;;;;15.27;8.37;;;;;;;7.90;100.00;99402.80;124149;1098;104304;-79
2022/11/24 01:45:39;;;;;;;16.60;8.90;;;;;;;7.90;100.00;99403.67;124178;1099;104326;-79
2022/11/24 01:48:16;;;;;;;15.90;8.40;;;;;;;7.90;100.00;99406.28;123854;1099;104376;-79
2022/11/24 01:50:54;;;;;;;17.27;9.40;;;;;;;7.93;100.00;99397.63;124054;1099;104252;-79
2022/11/24 01:53:26;;;;;;;19.27;10.00;;;;;;;7.95;100.00;99400.29;124228;1099;104724;-79
2022/11/24 01:55:57;;;;;;;16.97;9.67;;;;;;;7.96;100.00;99407.30;124047;1099;104255;-79
2022/11/24 01:58:32;;;;;;;17.13;9.20;;;;;;;7.94;100.00;99406.37;124242;1098;104341;-80
2022/11/24 02:01:03;;;;;;;17.87;9.60;;;;;;;7.91;100.00;99402.81;124129;1099;104485;-79
2022/11/24 02:03:39;;;;;;;19.40;9.50;;;;;;;7.92;100.00;99398.49;124087;1099;104352;-79
2022/11/24 02:06:13;;;;;;;18.30;10.23;;;;;;;7.92;100.00;99401.98;124059;1099;104230;-79
2022/11/24 02:08:51;;;;;;;17.73;10.10;;;;;;;7.95;100.00;99405.52;124079;1099;104697;-79
2022/11/24 02:11:26;;;;;;;19.33;10.00;;;;;;;7.98;100.00;99413.44;124087;1099;104217;-79
2022/11/24 02:13:59;;;;;;;17.40;9.40;;;;;;;7.96;100.00;99399.45;124102;1099;104230;-80
2022/11/24 02:16:32;;;;;;;19.87;9.73;;;;;;;7.91;100.00;99391.48;124175;1099;104367;-78
2022/11/24 02:19:04;;;;;;;17.43;9.60;;;;;;;7.85;100.00;99381.77;124153;1098;104283;-80
2022/11/24 02:21:35;;;;;;;18.40;10.20;;;;;;;7.82;100.00;99388.61;124277;1099;104232;-80
2022/11/24 02:24:16;;;;;;;18.83;10.47;;;;;;;7.80;100.00;99404.23;124129;1099;104252;-79
2022/11/24 02:26:50;;;;;;;20.37;11.00;;;;;;;7.78;100.00;99411.16;124173;1099;104390;-79
2022/11/24 02:29:21;;;;;;;17.97;10.20;;;;;;;7.77;100.00;99405.88;124410;1098;104255;-79
2022/11/24 02:31:58;;;;;;;20.23;11.17;;;;;;;7.71;100.00;99407.48;124273;1099;104312;-81
2022/11/24 02:34:29;;;;;;;21.77;10.53;;;;;;;7.67;100.00;99415.18;124230;1099;104386;-80
2022/11/24 02:37:00;;;;;;;20.40;10.73;;;;;;;7.62;100.00;99417.66;124188;1099;104280;-80
2022/11/24 02:39:31;;;;;;;20.63;10.83;;;;;;;7.62;100.00;99421.97;124238;1099;104724;-80
2022/11/24 02:42:06;;;;;;;21.27;10.87;;;;;;;7.53;100.00;99413.02;124132;1099;104296;-81
2022/11/24 02:44:42;;;;;;;19.80;10.50;;;;;;;7.49;100.00;99418.98;124113;1099;104291;-81
2022/11/24 02:47:14;;;;;;;20.93;10.37;;;;;;;7.45;100.00;99422.36;124257;1099;104351;-80
2022/11/24 02:49:45;;;;;;;18.90;10.63;;;;;;;7.38;100.00;99410.81;124146;1099;104680;-81
2022/11/24 02:52:16;;;;;;;21.03;10.90;;;;;;;7.36;100.00;99424.68;124074;1099;104425;-78
2022/11/24 02:54:47;;;;;;;21.87;11.30;;;;;;;7.32;100.00;99401.92;124088;1099;104357;-79
2022/11/24 02:57:19;;;;;;;20.47;11.30;;;;;;;7.30;100.00;99398.39;124227;1099;104245;-79
2022/11/24 02:59:50;;;;;;;20.50;11.57;;;;;;;7.31;100.00;99400.17;124179;1099;104272;-80
2022/11/24 03:02:21;;;;;;;22.53;11.30;;;;;;;7.27;100.00;99409.61;124171;1099;104245;-82
2022/11/24 03:04:52;;;;;;;22.67;11.77;;;;;;;7.23;100.00;99405.15;124262;1099;104683;-81
2022/11/24 03:07:23;;;;;;;21.97;12.27;;;;;;;7.17;100.00;99405.83;124246;1099;104254;-79
2022/11/24 03:09:54;;;;;;;23.60;12.47;;;;;;;7.12;100.00;99404.81;124167;1099;104318;-80
2022/11/24 03:12:25;;;;;;;24.40;13.60;;;;;;;7.08;100.00;99408.14;124184;1099;104309;-81
2022/11/24 03:14:56;;;;;;;24.27;12.60;;;;;;;7.04;100.00;99407.99;124065;1099;104345;-81
2022/11/24 03:17:27;;;;;;;22.47;12.20;;;;;;;7.01;100.00;99411.38;124150;1099;104389;-80
2022/11/24 03:20:01;;;;;;;23.30;13.67;;;;;;;6.95;100.00;99413.78;124157;1099;104380;-79
2022/11/24 03:22:32;;;;;;;25.43;13.47;;;;;;;6.89;100.00;99410.97;124218;1099;104357;-81
2022/11/24 03:25:03;;;;;;;26.73;13.17;;;;;;;6.86;100.00;99409.17;124162;1099;104373;-82
2022/11/24 03:27:34;;;;;;;24.33;13.10;;;;;;;6.82;100.00;99420.33;124196;1099;104258;-80
2022/11/24 03:30:07;;;;;;;23.05;13.20;;;;;;;6.76;100.00;99421.03;124144;1099;104334;-79
2022/11/24 03:32:38;;;;;;;24.33;13.37;;;;;;;6.72;100.00;99408.71;124023;1099;104265;-78
2022/11/24 03:35:10;;;;;;;23.40;13.43;;;;;;;6.66;100.00;99419.80;123916;1099;104274;-82
2022/11/24 03:37:42;;;;;;;24.07;13.27;;;;;;;6.60;100.00;99422.20;123759;1099;104302;-79
2022/11/24 03:40:14;;;;;;;24.90;13.47;;;;;;;6.60;100.00;99432.62;123927;1099;104171;-80
2022/11/24 03:42:45;;;;;;;24.30;14.47;;;;;;;6.56;100.00;99443.80;124025;1099;104226;-81
2022/11/24 03:45:16;;;;;;;24.97;14.17;;;;;;;6.57;100.00;99434.25;124044;1099;104379;-79
2022/11/24 03:47:52;;;;;;;25.17;13.67;;;;;;;6.53;100.00;99445.39;124120;1099;104419;-80
2022/11/24 03:50:23;;;;;;;24.47;13.37;;;;;;;6.51;100.00;99452.28;123797;1099;104232;-79
2022/11/24 03:52:54;;;;;;;27.77;14.33;;;;;;;6.43;100.00;99465.05;123953;1099;104264;-80
2022/11/24 03:55:25;;;;;;;30.40;15.00;;;;;;;6.40;100.00;99468.41;123779;1099;104249;-80
2022/11/24 03:57:56;;;;;;;25.03;13.70;;;;;;;6.36;100.00;99463.95;123843;1099;104226;-79
2022/11/24 04:00:28;;;;;;;25.90;14.17;;;;;;;6.33;100.00;99465.53;123841;1099;104383;-81
2022/11/24 04:02:59;;;;;;;26.07;14.33;;;;;;;6.30;100.00;99453.30;123900;1099;104296;-80
2022/11/24 04:05:32;;;;;;;27.70;14.43;;;;;;;6.31;100.00;99468.11;124160;1099;104213;-79
2022/11/24 04:08:04;;;;;;;26.20;14.05;;;;;;;6.29;100.00;99467.15;123901;1099;104291;-79
2022/11/24 04:10:36;;;;;;;28.67;14.67;;;;;;;6.23;100.00;99465.23;124011;1099;104367;-83
2022/11/24 04:13:14;;;;;;;28.00;14.10;;;;;;;6.20;100.00;99466.81;124143;1099;104303;-82
2022/11/24 04:15:45;;;;;;;26.63;13.60;;;;;;;6.17;100.00;99456.28;123907;1099;104351;-82
2022/11/24 04:18:16;;;;;;;29.23;14.90;;;;;;;6.15;100.00;99456.23;124104;1099;104274;-80
2022/11/24 04:20:49;;;;;;;28.90;14.60;;;;;;;6.16;100.00;99458.01;123974;1099;104405;-82
2022/11/24 04:23:20;;;;;;;26.80;13.67;;;;;;;6.18;100.00;99465.88;124375;1099;104307;-83
2022/11/24 04:25:51;;;;;;;28.87;14.93;;;;;;;6.14;100.00;99474.41;123936;1099;104252;-82
2022/11/24 04:28:22;;;;;;;25.03;13.90;;;;;;;6.11;100.00;99489.09;124591;1099;104348;-82
2022/11/24 04:30:53;;;;;;;28.43;14.97;;;;;;;6.08;100.00;99491.59;124404;1099;104300;-82
2022/11/24 04:33:24;;;;;;;28.53;15.00;;;;;;;6.05;100.00;99488.87;124139;1099;104163;-82
2022/11/24 04:35:56;;;;;;;28.97;15.50;;;;;;;6.00;100.00;99494.72;123990;1099;104367;-82
2022/11/24 04:38:27;;;;;;;28.07;14.33;;;;;;;5.93;100.00;99490.97;124001;1099;104511;-83
2022/11/24 04:41:03;;;;;;;27.70;13.70;;;;;;;5.90;100.00;99496.06;124096;1099;104245;-81
2022/11/24 04:43:34;;;;;;;29.73;15.37;;;;;;;5.87;100.00;99491.61;124183;1099;104165;-81
2022/11/24 04:46:05;;;;;;;25.77;13.93;;;;;;;5.86;100.00;99497.67;124278;1099;104275;-81
2022/11/24 04:48:36;;;;;;;27.63;14.23;;;;;;;5.85;100.00;99500.22;123982;1099;104271;-79
2022/11/24 04:51:09;;;;;;;27.17;14.70;;;;;;;5.81;100.00;99504.39;124153;1099;104275;-80
2022/11/24 04:53:40;;;;;;;25.63;14.10;;;;;;;5.80;100.00;99506.94;124078;1099;104191;-81
2022/11/24 04:56:11;;;;;;;29.97;14.03;;;;;;;5.78;100.00;99516.41;123998;1099;104281;-79
2022/11/24 04:58:42;;;;;;;27.00;13.70;;;;;;;5.76;100.00;99517.27;123953;1099;104291;-80
2022/11/24 05:01:14;;;;;;;28.23;13.87;;;;;;;5.73;100.00;99509.33;123870;1099;104302;-80
2022/11/24 05:03:45;;;;;;;27.50;13.70;;;;;;;5.74;100.00;99518.02;124004;1099;104421;-79
2022/11/24 05:06:16;;;;;;;28.10;14.37;;;;;;;5.73;100.00;99524.95;124230;1099;104197;-80
2022/11/24 05:08:50;;;;;;;27.67;13.93;;;;;;;5.71;100.00;99523.98;124126;1099;104261;-79
2022/11/24 05:11:19;;;;;;;;;;;;;;;5.67;100.00;99523.80;124006;1099;104267;-80
2022/11/24 05:13:52;;;;;;;26.90;13.67;;;;;;;5.63;100.00;99532.34;124203;1099;104246;-79
2022/11/24 05:16:23;;;;;;;27.27;14.23;;;;;;;5.62;100.00;99540.95;123878;1099;104179;-79
2022/11/24 05:18:54;;;;;;;28.13;14.67;;;;;;;5.62;100.00;99543.56;123833;1099;104309;-79
2022/11/24 05:21:26;;;;;;;27.57;13.90;;;;;;;5.62;100.00;99541.83;123814;1099;104290;-80
2022/11/24 05:23:57;;;;;;;28.73;14.33;;;;;;;5.65;100.00;99552.37;123896;1099;104412;-80
2022/11/24 05:26:28;;;;;;;29.93;14.37;;;;;;;5.66;100.00;99543.74;124056;1099;104358;-80
2022/11/24 05:28:59;;;;;;;28.13;15.13;;;;;;;5.63;100.00;99546.22;124037;1099;104245;-79
2022/11/24 05:31:30;;;;;;;26.53;13.90;;;;;;;5.65;100.00;99548.89;124255;1099;104405;-80
2022/11/24 05:34:01;;;;;;;27.67;14.50;;;;;;;5.63;100.00;99550.55;124003;1099;104242;-81
2022/11/24 05:39:22;;;;;;;27.00;13.83;;;;;;;5.59;100.00;99546.91;123892;1099;104172;-79
2022/11/24 05:41:53;;;;;;;27.37;14.17;;;;;;;5.62;100.00;99553.97;124021;1099;104428;-81
2022/11/24 05:44:24;;;;;;;27.33;14.50;;;;;;;5.62;100.00;99553.97;123979;1099;104203;-80
2022/11/24 05:46:55;;;;;;;27.90;14.40;;;;;;;5.60;100.00;99559.11;124280;1099;104204;-80
2022/11/24 05:49:26;;;;;;;30.93;15.80;;;;;;;5.60;100.00;99563.44;124262;1099;104348;-81
2022/11/24 05:51:57;;;;;;;29.53;16.00;;;;;;;5.59;100.00;99562.53;124365;1099;104335;-80
2022/11/24 05:54:29;;;;;;;30.53;14.80;;;;;;;5.58;100.00;99566.86;124454;1099;104207;-80
2022/11/24 05:57:00;;;;;;;27.17;14.40;;;;;;;5.55;100.00;99582.34;123968;1099;104261;-79
2022/11/24 05:59:31;;;;;;;32.17;15.70;;;;;;;5.54;100.00;99577.08;124018;1099;104300;-79
2022/11/24 06:02:02;;;;;;;28.07;14.20;;;;;;;5.55;100.00;99581.47;124035;1099;104358;-79
2022/11/24 06:04:34;;;;;;;28.70;14.50;;;;;;;5.54;100.00;99580.56;124115;1099;104255;-80
2022/11/24 06:07:07;;;;;;;28.17;13.73;;;;;;;5.59;100.00;99580.75;124389;1099;104467;-78
2022/11/24 06:09:40;;;;;;;28.23;14.10;;;;;;;5.56;100.00;99581.53;124458;1099;104274;-79
2022/11/24 06:12:13;;;;;;;30.52;15.50;;;;;;;5.54;100.00;99590.09;124486;1099;104232;-78
2022/11/24 06:14:44;;;;;;;28.63;14.00;;;;;;;5.51;100.00;99590.84;124683;1099;104245;-80
2022/11/24 06:17:15;;;;;;;28.53;13.67;;;;;;;5.50;100.00;99595.98;124173;1098;104392;-79
2022/11/24 06:19:48;;;;;;;26.83;13.30;;;;;;;5.48;100.00;99602.84;124445;1102;104342;-80
2022/11/24 06:22:20;;;;;;;29.60;14.50;;;;;;;5.47;100.00;99601.97;124474;1099;104236;-79
2022/11/24 06:24:51;;;;;;;28.87;13.73;;;;;;;5.48;100.00;99610.66;124337;1099;104223;-81
2022/11/24 06:27:23;;;;;;;29.13;14.67;;;;;;;5.49;100.00;99612.44;124470;1099;121044;-80
2022/11/24 06:29:55;;;;;;;30.27;15.13;;;;;;;5.50;100.00;99617.71;124504;1099;104006;-81
2022/11/24 06:32:28;;;;;;;28.40;14.60;;;;;;;5.54;100.00;99616.11;125167;1099;104149;-79
2022/11/24 06:35:00;;;;;;;30.93;15.53;;;;;;;5.56;100.00;99615.36;124706;1097;104241;-77
2022/11/24 06:37:31;;;;;;;29.60;14.77;;;;;;;5.57;100.00;99616.24;124672;1102;104714;-75
2022/11/24 06:40:02;;;;;;;31.80;15.60;;;;;;;5.60;100.00;99623.30;125631;1099;104200;-77
2022/11/24 06:42:33;;;;;;;28.07;14.73;;;;;;;5.62;100.00;99617.31;125351;1099;104255;-75
2022/11/24 06:45:05;;;;;;;28.80;13.43;;;;;;;5.66;100.00;99624.43;124955;1100;104325;-78
2022/11/24 06:47:36;;;;;;;31.43;15.20;;;;;;;5.70;100.00;99620.23;125005;1100;110604;-77
2022/11/24 06:50:11;;;;;;;32.80;15.67;;;;;;;5.72;100.00;99626.41;125176;1099;104248;-76
2022/11/24 06:52:43;;;;;;;31.50;15.40;;;;;;;5.81;100.00;99620.67;126266;1098;102493;-75
2022/11/24 06:55:15;;;;;;;37.03;18.50;;;;;;;5.90;100.00;99623.64;126309;1099;102158;-77
2022/11/24 06:57:46;;;;;;;34.50;16.80;;;;;;;6.03;100.00;99630.27;125955;1099;104360;-78
2022/11/24 07:00:19;;;;;;;35.90;18.47;;;;;;;6.03;100.00;99623.36;124847;1099;102729;-77
2022/11/24 07:02:51;;;;;;;33.97;17.13;;;;;;;6.05;100.00;99623.42;125003;1099;104214;-77
2022/11/24 07:05:32;;;;;;;36.00;19.25;;;;;;;6.04;100.00;99621.63;125929;1090;104127;31
2022/11/24 07:08:04;;;;;;;31.83;16.90;;;;;;;6.09;100.00;99630.50;125680;1102;108721;-75
2022/11/24 07:10:35;;;;;;;35.33;17.20;;;;;;;6.11;100.00;99645.38;126844;1093;103103;-74
2022/11/24 07:13:08;;;;;;;32.50;17.43;;;;;;;6.24;100.00;99648.47;125654;1102;104230;-75
2022/11/24 07:15:40;;;;;;;30.53;15.43;;;;;;;6.25;100.00;99656.34;125087;1102;104203;-76
2022/11/24 07:18:11;;;;;;;28.77;13.87;;;;;;;6.18;100.00;99656.92;125096;1102;102242;-75
2022/11/24 07:20:42;;;;;;;24.43;12.20;;;;;;;6.16;100.00;99662.92;125548;1102;104137;-75
2022/11/24 07:23:14;;;;;;;25.23;11.93;;;;;;;6.13;100.00;99668.00;125324;1102;104372;-76
2022/11/24 07:25:45;;;;;;;25.03;11.80;;;;;;;6.09;100.00;99657.46;124854;1102;101955;-75
2022/11/24 07:28:17;;;;;;;25.43;12.03;;;;;;;6.08;100.00;99660.88;124584;1101;104654;-79
2022/11/24 07:30:49;;;;;;;23.23;12.10;;;;;;;6.07;100.00;99659.09;124567;1102;102727;-76
2022/11/24 07:33:23;;;;;;;24.67;12.43;;;;;;;6.08;100.00;99660.88;125010;1102;102307;-77
2022/11/24 07:35:59;;;;;;;26.07;12.60;;;;;;;6.15;100.00;99658.52;125463;1102;104162;-79
2022/11/24 07:38:31;;;;;;;26.50;12.70;;;;;;;6.23;100.00;99658.02;124547;1102;104232;-79
2022/11/24 07:41:04;;;;;;;26.67;13.33;;;;;;;6.26;100.00;99659.83;124906;1102;104175;-77
2022/11/24 07:43:38;;;;;;;26.20;12.27;;;;;;;6.28;100.00;99653.86;125077;1102;102938;-76
2022/11/24 07:46:13;;;;;;;24.35;11.73;;;;;;;6.25;100.00;99660.68;124796;1102;104271;-75
2022/11/24 07:48:44;;;;;;;22.20;10.70;;;;;;;6.18;100.00;99653.44;124886;1102;102922;-73
2022/11/24 07:51:16;;;;;;;25.10;10.17;;;;;;;6.18;100.00;99658.65;125566;1102;103077;-74
2022/11/24 07:53:50;;;;;;;21.80;9.00;;;;;;;6.20;100.00;99654.38;125002;1102;104196;-75
2022/11/24 07:56:24;;;;;;;19.87;9.03;;;;;;;6.24;100.00;99656.28;125290;1102;102814;-75
2022/11/24 07:58:56;;;;;;;22.10;9.90;;;;;;;6.24;100.00;99664.10;124889;1102;102264;-78
2022/11/24 08:01:27;;;;;;;23.43;10.63;;;;;;;6.22;100.00;99666.64;125150;1102;104204;-75
2022/11/24 08:04:00;;;;;;;22.13;9.67;;;;;;;6.19;100.00;99674.34;125620;1101;102624;-74
2022/11/24 08:06:32;;;;;;;22.87;9.63;;;;;;;6.19;100.00;99666.52;125713;1102;103245;-77
2022/11/24 08:09:04;;;;;;;24.90;10.20;;;;;;;6.19;100.00;99655.22;125403;1102;102574;-76
2022/11/24 08:11:36;;;;;;;24.03;10.67;;;;;;;6.26;100.00;99662.44;124995;1102;104189;-78
2022/11/24 08:14:10;;;;;;;25.27;11.77;;;;;;;6.29;100.00;99652.13;124800;1102;103559;-75
2022/11/24 08:16:41;;;;;;;26.93;9.50;;;;;;;6.32;100.00;99651.37;125043;1102;103089;-75
2022/11/24 08:19:12;;;;;;;25.57;9.60;;;;;;;6.29;100.00;99657.34;125166;1102;104181;-74
2022/11/24 08:21:48;;;;;;;20.40;9.18;;;;;;;6.29;100.00;99657.34;125402;1102;103655;-74
2022/11/24 08:24:19;;;;;;;24.30;9.90;;;;;;;6.24;100.00;99664.98;124958;1102;103112;-76
2022/11/24 08:26:51;;;;;;;20.57;9.23;;;;;;;6.16;100.00;99662.92;124887;1101;102793;-75
2022/11/24 08:29:23;;;;;;;23.37;9.47;;;;;;;6.10;100.00;99663.55;125042;1102;104255;-76
2022/11/24 08:31:56;;;;;;;16.90;7.75;;;;;;;6.06;100.00;99665.16;124996;1102;103174;-74
2022/11/24 08:34:27;;;;;;;17.70;8.17;;;;;;;6.06;100.00;99664.24;125254;1102;103104;-74
2022/11/24 08:37:00;;;;;;;17.57;8.03;;;;;;;6.09;100.00;99674.78;126214;1089;102451;-73
2022/11/24 08:39:32;;;;;;;18.40;8.97;;;;;;;6.05;100.00;99683.32;125980;1102;102808;-75
2022/11/24 08:42:05;;;;;;;17.80;8.00;;;;;;;5.99;100.00;99686.55;125923;1102;102166;-74
2022/11/24 08:44:40;;;;;;;16.23;7.43;;;;;;;5.94;100.00;99680.24;125840;1102;102096;-74
2022/11/24 08:47:11;;;;;;;17.60;8.27;;;;;;;5.89;100.00;99679.14;126025;1101;102996;-75
2022/11/24 08:49:43;;;;;;;16.07;7.67;;;;;;;5.87;100.00;99684.28;125965;1102;102817;-75
2022/11/24 08:52:16;;;;;;;16.37;7.83;;;;;;;5.88;100.00;99674.78;126050;1101;102866;-76
2022/11/24 08:54:47;;;;;;;19.47;8.53;;;;;;;5.91;100.00;99678.39;126033;1102;102524;-76
2022/11/24 08:57:19;;;;;;;18.97;8.67;;;;;;;5.89;100.00;99677.45;126117;1102;102332;-77
2022/11/24 08:59:50;;;;;;;17.63;8.77;;;;;;;5.92;100.00;99676.66;126182;1101;102466;-75
2022/11/24 09:02:33;;;;;;;22.77;10.03;;;;;;;6.00;100.00;99683.13;126964;1092;102636;31
2022/11/24 09:05:05;;;;;;;21.83;9.83;;;;;;;6.06;100.00;99680.78;126088;1101;102815;-75
2022/11/24 09:07:39;;;;;;;27.00;11.23;;;;;;;6.08;100.00;99678.23;126013;1101;101738;-78
2022/11/24 09:10:19;;;;;;;28.40;12.60;;;;;;;6.13;100.00;99681.03;126071;1101;101967;-80
2022/11/24 09:12:51;;;;;;;31.03;13.60;;;;;;;6.19;100.00;99689.97;126249;1101;103962;-80
2022/11/24 09:15:22;;;;;;;23.80;11.20;;;;;;;6.26;100.00;99693.70;126295;1101;102464;-77
2022/11/24 09:17:58;;;;;;;22.23;10.07;;;;;;;6.26;100.00;99688.48;126256;1101;101874;-78
2022/11/24 09:20:31;;;;;;;21.93;10.57;;;;;;;6.28;100.00;99687.73;125834;1102;102297;-77
2022/11/24 09:23:07;;;;;;;16.23;7.70;;;;;;;6.33;100.00;99695.73;126096;1102;102397;-77
2022/11/24 09:25:41;;;;;;;17.27;7.97;;;;;;;6.34;100.00;99692.28;126418;1101;102798;-79
2022/11/24 09:28:20;;;;;;;19.50;7.97;;;;;;;6.42;100.00;99700.40;126214;1100;102152;-78
2022/11/24 09:31:09;;;;;;;16.27;7.03;;;;;;;6.47;100.00;99699.77;126137;1102;101959;-79
2022/11/24 09:33:44;;;;;;;15.53;7.23;;;;;;;6.55;100.00;99694.85;126198;1100;103015;-81
2022/11/24 09:36:25;;;;;;;16.10;7.20;;;;;;;6.59;100.00;99690.63;125543;1102;102107;-79
2022/11/24 09:39:02;;;;;;;21.77;7.57;;;;;;;6.60;100.00;99682.88;125653;1102;102813;-79
2022/11/24 09:42:14;;;;;;;15.57;7.17;;;;;;;6.56;100.00;99675.79;125635;1102;107054;-76
2022/11/24 09:45:21;;;;;;;19.23;7.07;;;;;;;6.66;100.00;99677.02;126043;1101;102652;-79
2022/11/24 09:48:02;;;;;;;20.43;7.53;;;;;;;6.77;100.00;99673.09;126075;1101;101814;-77
2022/11/24 09:50:42;;;;;;;19.40;8.83;;;;;;;6.81;100.00;99681.94;126268;1093;102417;-75
2022/11/24 09:53:45;;;;;;;20.63;8.10;;;;;;;6.89;100.00;99676.98;126484;1093;103693;-76
2022/11/24 09:56:24;;;;;;;16.80;7.83;;;;;;;6.91;100.00;99672.73;126076;1102;102916;-76
2022/11/24 10:01:52;;;;;;;17.37;7.70;;;;;;;6.87;100.00;99676.92;126119;1101;102906;-77
2022/11/24 10:04:28;;;;;;;14.77;7.20;;;;;;;6.83;100.00;99672.44;125921;1102;102712;-76
2022/11/24 10:07:14;;;;;;;17.13;7.67;;;;;;;6.81;100.00;99671.51;126327;1101;103511;-78
2022/11/24 10:10:00;;;;;;;16.47;7.57;;;;;;;6.81;100.00;99669.78;125827;1102;102396;-77
2022/11/24 10:12:50;;;;;;;17.33;7.47;;;;;;;6.82;100.00;99658.53;125057;1101;104252;-76
2022/11/24 10:15:38;;;;;;;21.53;8.47;;;;;;;6.78;100.00;99664.45;124524;1102;104192;-75
2022/11/24 10:18:49;;;;;;;18.07;7.50;;;;;;;6.77;100.00;99660.05;125676;1101;104235;-77
2022/11/24 10:21:34;;;;;;;18.00;7.53;;;;;;;6.77;100.00;99660.05;126275;1102;102325;-75
2022/11/24 10:24:23;;;;;;;17.30;7.77;;;;;;;6.72;100.00;99668.55;125854;1102;101997;-78
2022/11/24 10:27:10;;;;;;;17.70;7.40;;;;;;;6.70;100.00;99664.98;126029;1102;102541;-75
2022/11/24 10:29:42;;;;;;;13.47;6.43;;;;;;;6.64;100.00;99671.75;125762;1101;102440;-76
2022/11/24 10:32:23;;;;;;;14.33;6.33;;;;;;;6.59;100.00;99673.30;125980;1102;101920;-75
2022/11/24 10:35:01;;;;;;;13.07;6.30;;;;;;;6.53;100.00;99679.97;125971;1099;102627;-75
2022/11/24 10:37:44;;;;;;;17.03;6.97;;;;;;;6.45;100.00;99677.98;125933;1102;103566;-76
2022/11/24 10:40:32;;;;;;;17.70;7.57;;;;;;;6.46;100.00;99682.34;125743;1102;102806;-76
2022/11/24 10:43:09;;;;;;;17.40;7.43;;;;;;;6.48;100.00;99688.52;125904;1102;102249;-76
2022/11/24 10:45:43;;;;;;;17.70;7.60;;;;;;;6.47;100.00;99683.25;125913;1102;102679;-79
2022/11/24 10:48:22;;;;;;;17.27;7.17;;;;;;;6.52;100.00;99686.03;125777;1102;103338;-79
2022/11/24 10:51:01;;;;;;;15.60;6.97;;;;;;;6.53;100.00;99686.09;125973;1102;102250;-79
2022/11/24 10:53:44;;;;;;;18.53;7.17;;;;;;;6.48;100.00;99690.22;126032;1101;103137;-76
2022/11/24 10:56:24;;;;;;;17.40;6.62;;;;;;;6.45;100.00;99691.01;126021;1102;102567;-76
2022/11/24 10:59:39;;;;;;;19.40;7.77;;;;;;;6.38;100.00;99675.95;125923;1102;101819;-77
2022/11/24 11:02:48;;;;;;;21.37;8.90;;;;;;;6.42;100.00;99689.98;126028;1101;103074;-78
2022/11/24 11:05:40;;;;;;;20.00;8.83;;;;;;;6.45;100.00;99687.48;125907;1102;102380;-78
2022/11/24 11:08:26;;;;;;;18.03;7.87;;;;;;;6.52;100.00;99686.03;126113;1101;102142;-78
2022/11/24 11:11:30;;;;;;;19.43;8.40;;;;;;;6.49;100.00;99686.80;126066;1102;102250;-75
2022/11/24 11:14:05;;;;;;;20.27;9.47;;;;;;;6.44;100.00;99684.00;125712;1105;102352;-77
2022/11/24 11:16:53;;;;;;;19.87;8.27;;;;;;;6.45;100.00;99680.58;125750;1104;104056;-77
2022/11/24 11:19:36;;;;;;;19.37;8.70;;;;;;;6.56;100.00;99687.91;125416;1102;103313;-76
2022/11/24 11:22:24;;;;;;;20.20;8.53;;;;;;;6.56;100.00;99686.22;125381;1102;103215;-76
2022/11/24 11:25:19;;;;;;;20.87;8.73;;;;;;;6.48;100.00;99680.70;125009;1102;104223;-77
2022/11/24 11:28:10;;;;;;;20.07;8.47;;;;;;;6.39;100.00;99680.34;124718;1102;102924;-77
2022/11/24 11:30:58;;;;;;;21.60;8.73;;;;;;;6.31;100.00;99681.77;124757;1102;104226;-77
2022/11/24 11:33:35;;;;;;;19.40;8.53;;;;;;;6.35;100.00;99683.64;125114;1102;104160;-76
2022/11/24 11:36:22;;;;;;;22.63;9.87;;;;;;;6.44;100.00;99683.13;124965;1102;103357;-77
2022/11/24 11:38:57;;;;;;;19.37;9.10;;;;;;;6.39;100.00;99685.55;124861;1102;104188;-76
2022/11/24 11:41:33;;;;;;;19.00;8.87;;;;;;;6.32;100.00;99687.86;124484;1102;104398;-77
2022/11/24 11:44:19;;;;;;;21.67;8.97;;;;;;;6.26;100.00;99694.61;124689;1102;104405;-78